Flushing, NY

11:44 AM EDT on September 30, 2014 (GMT -0400)
APRSWXNET Brooklyn NY US | Change Station
CLOSE
Current Station
Personal Weather Station
Location: Flushing, NY
Elevation: 32 ft
Nearby Weather Stations

Elev 32 ft 40.70 °N, 73.90 °W | Updated 33 minutes ago

Overcast
Overcast
71.0 °F
Feels Like 76 °F
N
0.0
Wind Variable Wind from SSE
Gusts 4.0 mph

Today
High -- | Low -- °F
--% Chance of Precip.
Yesterday
High -- | Low -- °F
Precip. -- in
6:51 AM 6:39 PM
Waxing Crescent, 37% visible
Pressure 29.95 in
Visibility 10.0 miles
Clouds Few 1100 ft
Scattered Clouds 2800 ft
Overcast 5500 ft
Heat Index 76 °F
Dew Point 54.0 °F
Humidity 56%
Rainfall 0.00 in
Snow Depth Not available.
UV 2 out of 12
Pollen 2.30 out of 12
Air Quality Not available.
Flu Activity Not available.
METAR KLGA 301451Z 04011KT 10SM FEW011 SCT028 OVC055 19/14 A2995 RMK AO2 SLP142 T01940144 58001

More Conditions Fewer Conditions

Pressure 29.95 in
Visibility 10.0 miles
Clouds Few 1100 ft
Scattered Clouds 2800 ft
Overcast 5500 ft
Heat Index 76 °F
Dew Point 54.0 °F
Humidity 56%
Rainfall 0.00 in
Snow Depth Not available.
UV 2 out of 12
Pollen 2.30 out of 12
Air Quality Not available.
Flu Activity Not available.
METAR KLGA 301451Z 04011KT 10SM FEW011 SCT028 OVC055 19/14 A2995 RMK AO2 SLP142 T01940144 58001

More Conditions Fewer Conditions

10-Day Weather Forecast

Almanac

Astronomy

Sep. 30, 2014 Rise Set
Actual Time 6:51 AM EDT 6:39 PM EDT
Civil Twilight 6:23 AM EDT 7:06 PM EDT
Nautical Twilight 5:52 AM EDT 7:38 PM EDT
Astronomical Twilight 5:19 AM EDT 8:10 PM EDT
Moon 12:58 PM EDT 11:05 PM EDT
Length of Visible Light 12h 42m
Length of Day
11h 48m
Tomorrow will be 2m 39s shorter.
Waxing Crescent, 37% of the Moon is Illuminated
Today
Waxing Crescent
Oct 1
First Quarter
Oct 8
Full
Oct 15
Last Quarter
Oct 23
New

Today's Extremes

State Highs State Lows

Community

WunderPhotos

Upload Photos

1,757,671 photos uploaded!

Nearby

Snow Depth

Station Depth Elevation
No new snow has been reported.

Earthquake Activity

City Distance Mag. Time & Date
No recent earthquake activity has been reported nearby.
Minimum magnitude displayed is 2.5.

Coastal Water Temperatures

Place Temperature
Sandy Hook, NJ 68.0 °F
The Battery, NY 69.1 °F
Bergen Point West Reach, NJ 69.1 °F
Kings Point, NY 66.9 °F

Nearby Weather Stations